Rechercher aéroport 
image banner adimage banner ad
image banner ad

FYFBMN - Maun

Situé à Main, Namibia

ICAO - , IATA - MUB

Données fournies par Airmate  

Information générale

Coordonnées: S19°58'19" E23°25'41"
Élévation : 3195 feet MSL.
 
Voir autres Aéroports à Caprivi

Données opérationnelles

Accessible au public
Heure actuelle UTC:
Heure actuelle locale:
Météo à : FBMN - Maun ( 0 km )
METAR: FBMN 201400Z 14010KT 9999 SCT030 39/01 Q1010
TAF: TAF FBMN 200900Z 2012/2021 09010KT CAVOK
Voir NOTAMs / SUP AIP / TFR affectant cet aéroport [VIEW]
Fréquences de communication: [VIEW]

Pistes:

Identifiant RWYQFULongueur (ft)Largeur (ft)SurfaceLDA (ft)
08-1°6562164ASPH
26-1°6562164ASPH

Coordonnées de l'aéroport

Adresse: Main Namibia

Vue satellite de FYFBMN